Trina Smith — WDE3530 — position and weather

sailwx.info

Track history (hours):
 
Tides and Currents Weather Stations Pressure Air Temp Water Temp Dewpoint Dewpoint Depression Visibility Wind Speed Wind Dir Waves Ship Positions

Trina Smith

Owner: Florida Marine, LLC, Mandeville, LA. More information available from US FCC via Universal Licensing System and Coast Guard Vessel Documentation Center.

Last reported at 2018-Jun-10 03:27 UTC. Time now 2018-Jun-20 05:51 UTC.
Position N 28°54' W 095°24'.
Warning: this ship's position is 10 days out of date.

Length 27 m; draft 2.9 m.

Type: Towing. MMSI: 367340460.

Date/timePositionNaut miles runAvg speedWind from/ knotsBaromVisibWave heightAir tempDewpointWater temp
2018-Jun-10 03:27N 28°54' W 095°24'1 3.2
2018-Jun-10 02:59N 28°54' W 095°22'2 4.7
2018-Jun-10 02:28N 28°56' W 095°20'3 5.9
2018-Jun-10 02:00N 28°57' W 095°18'2 4.2
2018-Jun-10 01:30N 28°59' W 095°16'38 4.3
2018-Jun-09 16:44N 29°31' W 094°53'2 6.1
2018-Jun-09 16:26N 29°33' W 094°55'3 6.3
2018-Jun-09 15:58N 29°35' W 094°56'6 6.5
2018-Jun-09 15:00N 29°41' W 094°59'11 1.0
2018-Jun-09 04:03N 29°44' W 095°12'0 0.0
2018-Jun-09 03:38N 29°44' W 095°12'0 0.0
2018-Jun-09 03:25N 29°44' W 095°12'0 0.0
2018-Jun-09 02:58N 29°44' W 095°12'0 0.0
2018-Jun-09 02:08N 29°44' W 095°12'0 0.0
2018-Jun-09 01:44N 29°44' W 095°12'1 0.1
2018-Jun-08 06:38N 29°45' W 095°11'1 6.3
2018-Jun-08 06:30N 29°45' W 095°10'4 6.3
2018-Jun-08 05:55N 29°45' W 095°06'2 5.7
2018-Jun-08 05:29N 29°47' W 095°04'1 1.3
2018-Jun-08 04:57N 29°47' W 095°04'0 0.4
2018-Jun-08 04:25N 29°47' W 095°04'0 0.0
2018-Jun-08 04:00N 29°47' W 095°04'0 0.0
2018-Jun-08 03:11N 29°47' W 095°04'1 4.1
2018-Jun-08 02:59N 29°47' W 095°05'1 2.8
2018-Jun-08 02:28N 29°46' W 095°06'0 0.0
2018-Jun-08 01:57N 29°46' W 095°06'0 0.0
2018-Jun-07 09:26N 29°46' W 095°06'0 0.0
2018-Jun-07 08:49N 29°46' W 095°06'0 0.0
2018-Jun-07 08:28N 29°46' W 095°06'0 0.0
2018-Jun-07 07:57N 29°46' W 095°06'1 1.5
2018-Jun-07 07:28N 29°46' W 095°05'1 0.7
2018-Jun-07 06:07N 29°46' W 095°07'0 0.0
2018-Jun-07 05:51N 29°46' W 095°07'0 0.0
2018-Jun-07 04:14N 29°46' W 095°07'1 4.0
2018-Jun-07 03:54N 29°46' W 095°05'2 4.1
2018-Jun-07 03:29N 29°47' W 095°04'0 0.0
2018-Jun-07 02:54N 29°47' W 095°04'0 0.0
2018-Jun-07 02:27N 29°47' W 095°04'0 0.0
2018-Jun-07 01:55N 29°47' W 095°04'5 1.0
2018-Jun-06 20:52N 29°43' W 095°01'4 6.7
2018-Jun-06 20:15N 29°39' W 094°58'2 7.4
2018-Jun-06 20:00N 29°38' W 094°58'20 5.5
2018-Jun-06 16:16N 29°17' W 094°56'1 5.4
2018-Jun-06 16:00N 29°17' W 094°57'2 3.4
2018-Jun-06 15:30N 29°16' W 094°59'1 2.0
2018-Jun-06 15:00N 29°16' W 094°60'3 6.0
2018-Jun-06 14:30N 29°13' W 095°02'3 5.8
2018-Jun-06 14:00N 29°11' W 095°05'3 6.2
2018-Jun-06 13:30N 29°10' W 095°08'3 6.4
2018-Jun-06 13:00N 29°08' W 095°10'3 6.0
2018-Jun-06 12:30N 29°05' W 095°12'3 6.0
2018-Jun-06 12:00N 29°03' W 095°14'3 6.4
2018-Jun-06 11:30N 28°60' W 095°15'3 6.5
2018-Jun-06 10:58N 28°57' W 095°18'3 5.9
2018-Jun-06 10:28N 28°55' W 095°21'1 1.8
2018-Jun-06 09:49N 28°55' W 095°22'0 0.1
2018-Jun-06 09:30N 28°55' W 095°22'0 0.1
2018-Jun-06 08:52N 28°55' W 095°22'2 5.1
2018-Jun-06 08:30N 28°54' W 095°24'1 2.0
2018-Jun-06 07:55N 28°54' W 095°22'0 0.2
2018-Jun-06 07:30N 28°54' W 095°22'2 2.9
2018-Jun-06 06:56N 28°54' W 095°24'  
Track history (hours):
 
Tides and Currents Weather Stations Pressure Air Temp Water Temp Dewpoint Dewpoint Depression Visibility Wind Speed Wind Dir Waves Ship Positions

Trina Smith

Owner: Florida Marine, LLC, Mandeville, LA. More information available from US FCC via Universal Licensing System and Coast Guard Vessel Documentation Center.

Last reported at 2018-Jun-10 03:27 UTC. Time now 2018-Jun-20 05:51 UTC.
Position N 28°54' W 095°24'.
Warning: this ship's position is 10 days out of date.

Length 27 m; draft 2.9 m.

Type: Towing. MMSI: 367340460.

Date/timePositionNaut miles runAvg speedWind from/ knotsBaromVisibWave heightAir tempDewpointWater temp
2018-Jun-10 03:27N 28°54' W 095°24'1 3.2
2018-Jun-10 02:59N 28°54' W 095°22'2 4.7
2018-Jun-10 02:28N 28°56' W 095°20'3 5.9
2018-Jun-10 02:00N 28°57' W 095°18'2 4.2
2018-Jun-10 01:30N 28°59' W 095°16'38 4.3
2018-Jun-09 16:44N 29°31' W 094°53'2 6.1
2018-Jun-09 16:26N 29°33' W 094°55'3 6.3
2018-Jun-09 15:58N 29°35' W 094°56'6 6.5
2018-Jun-09 15:00N 29°41' W 094°59'11 1.0
2018-Jun-09 04:03N 29°44' W 095°12'0 0.0
2018-Jun-09 03:38N 29°44' W 095°12'0 0.0
2018-Jun-09 03:25N 29°44' W 095°12'0 0.0
2018-Jun-09 02:58N 29°44' W 095°12'0 0.0
2018-Jun-09 02:08N 29°44' W 095°12'0 0.0
2018-Jun-09 01:44N 29°44' W 095°12'1 0.1
2018-Jun-08 06:38N 29°45' W 095°11'1 6.3
2018-Jun-08 06:30N 29°45' W 095°10'4 6.3
2018-Jun-08 05:55N 29°45' W 095°06'2 5.7
2018-Jun-08 05:29N 29°47' W 095°04'1 1.3
2018-Jun-08 04:57N 29°47' W 095°04'0 0.4
2018-Jun-08 04:25N 29°47' W 095°04'0 0.0
2018-Jun-08 04:00N 29°47' W 095°04'0 0.0
2018-Jun-08 03:11N 29°47' W 095°04'1 4.1
2018-Jun-08 02:59N 29°47' W 095°05'1 2.8
2018-Jun-08 02:28N 29°46' W 095°06'0 0.0
2018-Jun-08 01:57N 29°46' W 095°06'0 0.0
2018-Jun-07 09:26N 29°46' W 095°06'0 0.0
2018-Jun-07 08:49N 29°46' W 095°06'0 0.0
2018-Jun-07 08:28N 29°46' W 095°06'0 0.0
2018-Jun-07 07:57N 29°46' W 095°06'1 1.5
2018-Jun-07 07:28N 29°46' W 095°05'1 0.7
2018-Jun-07 06:07N 29°46' W 095°07'0 0.0
2018-Jun-07 05:51N 29°46' W 095°07'0 0.0
2018-Jun-07 04:14N 29°46' W 095°07'1 4.0
2018-Jun-07 03:54N 29°46' W 095°05'2 4.1
2018-Jun-07 03:29N 29°47' W 095°04'0 0.0
2018-Jun-07 02:54N 29°47' W 095°04'0 0.0
2018-Jun-07 02:27N 29°47' W 095°04'0 0.0
2018-Jun-07 01:55N 29°47' W 095°04'5 1.0
2018-Jun-06 20:52N 29°43' W 095°01'4 6.7
2018-Jun-06 20:15N 29°39' W 094°58'2 7.4
2018-Jun-06 20:00N 29°38' W 094°58'20 5.5
2018-Jun-06 16:16N 29°17' W 094°56'1 5.4
2018-Jun-06 16:00N 29°17' W 094°57'2 3.4
2018-Jun-06 15:30N 29°16' W 094°59'1 2.0
2018-Jun-06 15:00N 29°16' W 094°60'3 6.0
2018-Jun-06 14:30N 29°13' W 095°02'3 5.8
2018-Jun-06 14:00N 29°11' W 095°05'3 6.2
2018-Jun-06 13:30N 29°10' W 095°08'3 6.4
2018-Jun-06 13:00N 29°08' W 095°10'3 6.0
2018-Jun-06 12:30N 29°05' W 095°12'3 6.0
2018-Jun-06 12:00N 29°03' W 095°14'3 6.4
2018-Jun-06 11:30N 28°60' W 095°15'3 6.5
2018-Jun-06 10:58N 28°57' W 095°18'3 5.9
2018-Jun-06 10:28N 28°55' W 095°21'1 1.8
2018-Jun-06 09:49N 28°55' W 095°22'0 0.1
2018-Jun-06 09:30N 28°55' W 095°22'0 0.1
2018-Jun-06 08:52N 28°55' W 095°22'2 5.1
2018-Jun-06 08:30N 28°54' W 095°24'1 2.0
2018-Jun-06 07:55N 28°54' W 095°22'0 0.2
2018-Jun-06 07:30N 28°54' W 095°22'2 2.9
2018-Jun-06 06:56N 28°54' W 095°24'  

Dump ship's entire track history